createdAt,value
2022-08-22T00:01:12.100Z,19.66
2022-08-22T00:03:07.477Z,20.05
2022-08-22T00:04:26.032Z,20.06
2022-08-22T00:07:46.874Z,19.97
2022-08-22T00:10:59.159Z,19.99
2022-08-22T00:14:21.017Z,19.91
2022-08-22T00:17:41.320Z,19.78
2022-08-22T00:20:52.903Z,19.76
2022-08-22T00:24:09.692Z,19.80
2022-08-22T00:27:21.372Z,19.74
2022-08-22T00:30:31.519Z,19.86
2022-08-22T00:33:46.912Z,19.96
2022-08-22T00:36:59.382Z,19.93
2022-08-22T00:40:21.549Z,20.06
2022-08-22T00:43:55.572Z,20.17
2022-08-22T00:47:41.238Z,20.03
2022-08-22T00:51:05.489Z,20.11
2022-08-22T00:54:21.401Z,20.04
2022-08-22T00:57:56.775Z,19.81
2022-08-22T01:01:08.068Z,19.75
2022-08-22T01:04:44.482Z,19.55
2022-08-22T01:08:09.648Z,19.49
2022-08-22T01:11:42.760Z,19.24
2022-08-22T01:14:53.682Z,18.27
2022-08-22T01:18:24.663Z,18.60
2022-08-22T01:22:21.332Z,18.91
2022-08-22T01:26:01.983Z,19.39
2022-08-22T01:29:46.832Z,18.73
2022-08-22T01:33:31.000Z,18.73
2022-08-22T01:37:11.060Z,18.84
2022-08-22T01:40:53.634Z,18.78
2022-08-22T01:44:20.679Z,18.86
2022-08-22T01:47:36.585Z,18.71
2022-08-22T01:50:50.504Z,18.78
2022-08-22T01:54:04.300Z,18.82
2022-08-22T01:57:12.352Z,18.94
2022-08-22T02:00:35.119Z,19.33
2022-08-22T02:03:54.649Z,19.25
2022-08-22T02:07:08.206Z,19.11
2022-08-22T02:10:23.129Z,19.44
2022-08-22T02:13:46.491Z,19.37
2022-08-22T02:16:58.519Z,19.41
2022-08-22T02:20:11.679Z,19.11
2022-08-22T02:23:24.665Z,18.94
2022-08-22T02:26:45.399Z,19.06
2022-08-22T02:30:00.331Z,19.34
2022-08-22T02:33:13.346Z,19.23
2022-08-22T02:36:27.183Z,18.94
2022-08-22T02:39:38.798Z,18.72
2022-08-22T02:42:51.726Z,18.54
2022-08-22T02:46:05.307Z,18.30
2022-08-22T02:49:20.042Z,18.29
2022-08-22T02:52:35.431Z,18.76
2022-08-22T02:55:49.373Z,18.44
2022-08-22T02:59:00.371Z,18.42
2022-08-22T03:02:35.404Z,18.67
2022-08-22T03:05:52.740Z,18.27
2022-08-22T03:09:09.352Z,18.14
2022-08-22T03:12:26.115Z,17.85
2022-08-22T03:15:40.696Z,17.86
2022-08-22T03:19:00.790Z,18.58
2022-08-22T03:22:15.162Z,18.10
2022-08-22T03:25:31.099Z,18.42
2022-08-22T03:28:52.684Z,18.06
2022-08-22T03:32:12.626Z,18.38
2022-08-22T03:35:27.583Z,17.95
2022-08-22T03:38:50.123Z,18.25
2022-08-22T03:42:26.302Z,18.55
2022-08-22T03:45:57.974Z,18.54
2022-08-22T03:49:40.171Z,18.57
2022-08-22T03:53:23.366Z,18.75
2022-08-22T03:57:01.688Z,18.83
2022-08-22T04:00:20.371Z,18.76
2022-08-22T04:03:57.371Z,18.92
2022-08-22T04:07:42.978Z,18.66
2022-08-22T04:11:31.516Z,18.80
2022-08-22T04:15:21.388Z,18.71
2022-08-22T04:19:05.914Z,18.72
2022-08-22T04:23:04.704Z,18.90
2022-08-22T04:26:17.430Z,18.90
2022-08-22T04:29:34.509Z,18.97
2022-08-22T04:32:46.290Z,18.59
2022-08-22T04:36:03.443Z,19.05
2022-08-22T04:39:18.576Z,18.96
2022-08-22T04:42:33.677Z,18.73
2022-08-22T04:45:46.451Z,18.24
2022-08-22T04:48:57.105Z,18.56
2022-08-22T04:52:29.476Z,18.74
2022-08-22T04:55:44.687Z,18.97
2022-08-22T04:59:00.287Z,19.15
2022-08-22T05:02:11.730Z,19.26
2022-08-22T05:05:23.422Z,18.60
2022-08-22T05:08:35.475Z,18.81
2022-08-22T05:11:43.482Z,18.80
2022-08-22T05:14:56.560Z,18.67
2022-08-22T05:18:08.775Z,18.74
2022-08-22T05:21:19.663Z,18.69
2022-08-22T05:24:31.794Z,18.70
2022-08-22T05:27:43.487Z,18.44
2022-08-22T05:30:52.432Z,18.58
2022-08-22T05:34:04.894Z,18.40
2022-08-22T05:37:15.775Z,18.99
2022-08-22T05:40:25.035Z,19.08
2022-08-22T05:43:34.571Z,18.37
2022-08-22T05:46:48.025Z,19.39
2022-08-22T05:50:02.010Z,19.00
2022-08-22T05:53:12.392Z,18.41
2022-08-22T05:56:31.164Z,18.84
2022-08-22T05:59:42.460Z,19.63
2022-08-22T06:03:07.044Z,19.67
2022-08-22T06:06:18.440Z,19.78
2022-08-22T06:09:35.519Z,19.75
2022-08-22T06:12:46.811Z,19.81
2022-08-22T06:16:00.725Z,19.64
2022-08-22T06:19:18.997Z,19.47
2022-08-22T06:22:29.808Z,19.58
2022-08-22T06:25:40.055Z,19.99
2022-08-22T06:28:54.991Z,19.93
2022-08-22T06:32:08.747Z,19.96
2022-08-22T06:35:23.591Z,20.19
2022-08-22T06:38:35.740Z,20.00
2022-08-22T06:41:52.516Z,20.06
2022-08-22T06:45:02.229Z,20.42
2022-08-22T06:48:17.507Z,21.26
2022-08-22T06:51:27.891Z,20.93
2022-08-22T06:54:37.947Z,21.40
2022-08-22T06:57:50.616Z,20.89
2022-08-22T07:01:11.455Z,21.00
2022-08-22T07:04:21.397Z,20.14
2022-08-22T07:07:29.966Z,20.31
2022-08-22T07:10:37.186Z,20.87
2022-08-22T07:13:50.645Z,20.94
2022-08-22T07:16:59.970Z,20.82
2022-08-22T07:20:18.274Z,20.53
2022-08-22T07:23:36.214Z,20.75
2022-08-22T07:26:52.271Z,20.90
2022-08-22T07:30:09.911Z,20.95
2022-08-22T07:33:29.852Z,20.10
2022-08-22T07:36:45.168Z,20.26
2022-08-22T07:39:57.096Z,21.33
2022-08-22T07:43:13.548Z,20.81
2022-08-22T07:46:30.082Z,20.60
2022-08-22T07:49:40.331Z,21.05
2022-08-22T07:53:01.958Z,20.70
2022-08-22T07:56:16.697Z,21.01
2022-08-22T07:59:34.555Z,21.01
2022-08-22T08:02:47.945Z,21.82
2022-08-22T08:05:55.390Z,21.34
2022-08-22T08:09:03.778Z,20.90
2022-08-22T08:12:13.298Z,21.61
2022-08-22T08:15:21.963Z,21.98
2022-08-22T08:18:32.170Z,21.69
2022-08-22T08:21:41.778Z,20.93
2022-08-22T08:24:50.857Z,21.80
2022-08-22T08:28:18.277Z,21.50
2022-08-22T08:31:28.773Z,22.44
2022-08-22T08:34:35.683Z,23.18
2022-08-22T08:37:46.255Z,23.98
2022-08-22T08:41:20.842Z,24.11
2022-08-22T08:45:09.194Z,23.70
2022-08-22T08:48:42.825Z,23.46
2022-08-22T08:52:32.668Z,23.79
2022-08-22T08:55:51.309Z,23.26
2022-08-22T08:59:09.984Z,23.96
2022-08-22T09:02:36.859Z,24.00
2022-08-22T09:05:57.227Z,24.21
2022-08-22T09:09:25.979Z,24.08
2022-08-22T09:13:12.205Z,24.53
2022-08-22T09:16:45.567Z,24.38
2022-08-22T09:20:21.817Z,24.56
2022-08-22T09:24:23.402Z,24.61
2022-08-22T09:27:35.855Z,24.08
2022-08-22T09:31:21.936Z,24.57
2022-08-22T09:34:42.348Z,23.61
2022-08-22T09:38:10.467Z,24.07
2022-08-22T09:41:30.715Z,23.45
2022-08-22T09:44:48.576Z,23.52
2022-08-22T09:48:07.203Z,23.75
2022-08-22T09:51:31.681Z,23.32
2022-08-22T09:54:47.511Z,23.37
2022-08-22T09:58:03.109Z,23.33
2022-08-22T10:01:23.660Z,23.14
2022-08-22T10:04:48.072Z,23.20
2022-08-22T10:08:11.315Z,23.22
2022-08-22T10:11:28.824Z,23.56
2022-08-22T10:14:51.165Z,23.75
2022-08-22T10:18:10.618Z,23.57
2022-08-22T10:21:25.415Z,23.41
2022-08-22T10:24:43.727Z,23.30
2022-08-22T10:28:10.614Z,23.71
2022-08-22T10:31:25.126Z,23.57
2022-08-22T10:34:37.695Z,23.64
2022-08-22T10:37:54.764Z,23.47
2022-08-22T10:41:09.654Z,23.49
2022-08-22T10:44:20.859Z,23.73
2022-08-22T10:47:35.761Z,23.57
2022-08-22T10:50:46.535Z,24.00
2022-08-22T10:54:03.232Z,24.52
2022-08-22T10:57:27.666Z,24.76
2022-08-22T11:00:49.761Z,24.63
2022-08-22T11:04:06.380Z,24.70
2022-08-22T11:07:34.191Z,25.18
2022-08-22T11:10:59.259Z,25.14
2022-08-22T11:14:48.043Z,24.94
2022-08-22T11:18:18.736Z,24.90
2022-08-22T11:21:32.915Z,24.93
2022-08-22T11:25:36.129Z,24.51
2022-08-22T11:29:13.199Z,24.80
2022-08-22T11:32:30.507Z,24.44
2022-08-22T11:35:43.631Z,24.36
2022-08-22T11:39:06.531Z,24.17
2022-08-22T11:42:23.187Z,24.36
2022-08-22T11:45:36.641Z,24.26
2022-08-22T11:48:57.068Z,23.70
2022-08-22T11:52:25.540Z,24.58
2022-08-22T11:55:38.199Z,24.46
2022-08-22T11:58:54.906Z,24.76
2022-08-22T12:02:05.962Z,24.73
2022-08-22T12:05:26.493Z,24.47
2022-08-22T12:09:14.700Z,24.51
2022-08-22T12:12:36.085Z,24.36
2022-08-22T12:15:54.022Z,24.92
2022-08-22T12:19:11.271Z,24.47
2022-08-22T12:22:55.056Z,24.50
2022-08-22T12:26:12.695Z,24.55
2022-08-22T12:29:44.936Z,24.59
2022-08-22T12:33:22.939Z,24.74
2022-08-22T12:36:56.103Z,24.17
2022-08-22T12:40:29.685Z,24.09
2022-08-22T12:43:54.995Z,23.28
2022-08-22T12:47:17.646Z,22.36
2022-08-22T12:50:34.835Z,21.65
2022-08-22T12:54:26.113Z,22.00
2022-08-22T12:57:50.570Z,21.84
2022-08-22T13:01:16.056Z,21.46
2022-08-22T13:04:33.392Z,21.29
2022-08-22T13:08:17.589Z,21.28
2022-08-22T13:11:42.463Z,21.38
2022-08-22T13:15:25.114Z,21.45
2022-08-22T13:18:44.820Z,21.19
2022-08-22T13:22:14.502Z,21.28
2022-08-22T13:25:28.897Z,21.53
2022-08-22T13:28:41.579Z,21.99
2022-08-22T13:32:01.435Z,22.24
2022-08-22T13:35:24.654Z,22.35
2022-08-22T13:38:56.266Z,22.79
2022-08-22T13:42:20.287Z,22.51
2022-08-22T13:45:46.923Z,22.73
2022-08-22T13:49:10.873Z,22.62
2022-08-22T13:52:30.632Z,22.35
2022-08-22T13:55:54.108Z,22.19
2022-08-22T13:59:04.730Z,22.97
2022-08-22T14:02:18.658Z,22.61
2022-08-22T14:05:29.910Z,23.14
2022-08-22T14:08:45.255Z,22.90
2022-08-22T14:11:57.099Z,23.64
2022-08-22T14:15:07.967Z,23.71
2022-08-22T14:18:30.069Z,23.92
2022-08-22T14:21:44.530Z,23.71
2022-08-22T14:24:56.732Z,24.03
2022-08-22T14:28:09.316Z,24.26
2022-08-22T14:31:23.273Z,24.53
2022-08-22T14:34:33.238Z,24.16
2022-08-22T14:37:43.559Z,24.40
2022-08-22T14:40:58.229Z,24.80
2022-08-22T14:44:13.051Z,24.54
2022-08-22T14:47:43.242Z,24.47
2022-08-22T14:50:58.037Z,24.48
2022-08-22T14:54:14.080Z,24.05
2022-08-22T14:57:29.295Z,24.30
2022-08-22T15:00:38.422Z,24.45
2022-08-22T15:03:52.414Z,24.49
2022-08-22T15:07:02.391Z,24.33
2022-08-22T15:10:20.706Z,24.72
2022-08-22T15:13:29.712Z,24.23
2022-08-22T15:16:40.411Z,24.14
2022-08-22T15:19:52.146Z,24.75
2022-08-22T15:23:03.288Z,24.62
2022-08-22T15:26:26.694Z,24.72
2022-08-22T15:29:46.605Z,24.29
2022-08-22T15:32:53.407Z,24.28
2022-08-22T15:36:11.310Z,24.22
2022-08-22T15:39:32.239Z,24.03
2022-08-22T15:42:44.610Z,24.31
2022-08-22T15:46:09.931Z,24.28
2022-08-22T15:49:30.690Z,24.29
2022-08-22T15:53:11.755Z,24.20
2022-08-22T15:56:28.216Z,24.23
2022-08-22T15:59:47.923Z,23.27
2022-08-22T16:03:08.475Z,23.86
2022-08-22T16:06:15.881Z,23.90
2022-08-22T16:09:40.456Z,23.49
2022-08-22T16:13:12.119Z,23.48
2022-08-22T16:16:57.658Z,23.24
2022-08-22T16:20:41.462Z,23.33
2022-08-22T16:24:25.272Z,23.99
2022-08-22T16:27:34.270Z,23.81
2022-08-22T16:30:40.700Z,23.81
2022-08-22T16:33:47.844Z,23.73
2022-08-22T16:37:42.299Z,23.46
2022-08-22T16:40:49.506Z,23.36
2022-08-22T16:44:18.415Z,23.57
2022-08-22T16:47:41.736Z,23.26
2022-08-22T16:51:03.372Z,23.12
2022-08-22T16:54:12.961Z,23.27
2022-08-22T16:57:25.823Z,23.09
2022-08-22T17:00:43.754Z,23.02
2022-08-22T17:04:00.944Z,22.88
2022-08-22T17:07:24.998Z,22.84
2022-08-22T17:10:57.251Z,22.68
2022-08-22T17:14:21.123Z,22.78
2022-08-22T17:17:44.342Z,22.64
2022-08-22T17:21:04.602Z,22.39
2022-08-22T17:24:33.792Z,22.12
2022-08-22T17:27:42.264Z,22.25
2022-08-22T17:30:58.984Z,22.02
2022-08-22T17:34:25.473Z,21.97
2022-08-22T17:37:42.268Z,22.04
2022-08-22T17:41:01.121Z,21.80
2022-08-22T17:44:19.167Z,21.68
2022-08-22T17:47:33.307Z,21.69
2022-08-22T17:50:47.459Z,21.62
2022-08-22T17:53:58.483Z,21.83
2022-08-22T17:57:11.701Z,21.38
2022-08-22T18:00:25.715Z,21.29
2022-08-22T18:03:36.597Z,21.53
2022-08-22T18:06:56.246Z,21.29
2022-08-22T18:10:09.161Z,21.25
2022-08-22T18:13:22.814Z,21.01
2022-08-22T18:16:33.964Z,21.22
2022-08-22T18:19:46.767Z,21.04
2022-08-22T18:22:58.172Z,21.10
2022-08-22T18:26:15.850Z,20.95
2022-08-22T18:29:25.958Z,21.13
2022-08-22T18:32:38.408Z,20.92
2022-08-22T18:35:53.779Z,20.58
2022-08-22T18:39:07.479Z,20.88
2022-08-22T18:42:25.598Z,20.99
2022-08-22T18:46:03.296Z,20.58
2022-08-22T18:49:30.007Z,20.91
2022-08-22T18:52:39.796Z,20.61
2022-08-22T18:59:57.530Z,20.80
2022-08-22T19:03:42.881Z,20.97
2022-08-22T19:07:04.897Z,21.09
2022-08-22T19:10:35.143Z,21.13
2022-08-22T19:14:12.224Z,21.15
2022-08-22T19:17:46.404Z,21.05
2022-08-22T19:21:43.341Z,21.01
2022-08-22T19:25:14.563Z,21.00
2022-08-22T19:28:27.098Z,20.84
2022-08-22T19:31:48.866Z,20.59
2022-08-22T19:35:19.726Z,20.37
2022-08-22T19:39:00.215Z,20.47
2022-08-22T19:42:10.793Z,20.40
2022-08-22T19:45:25.850Z,20.48
2022-08-22T19:48:44.663Z,20.59
2022-08-22T19:52:04.639Z,20.14
2022-08-22T19:55:19.014Z,19.81
2022-08-22T19:58:33.914Z,20.14
2022-08-22T20:01:56.548Z,20.32
2022-08-22T20:05:28.929Z,20.36
2022-08-22T20:09:01.688Z,20.15
2022-08-22T20:12:16.499Z,20.30
2022-08-22T20:15:26.833Z,20.29
2022-08-22T20:19:05.162Z,20.19
2022-08-22T20:22:19.380Z,20.21
2022-08-22T20:25:42.162Z,19.91
2022-08-22T20:28:52.538Z,19.75
2022-08-22T20:32:00.047Z,20.01
2022-08-22T20:35:07.684Z,19.98
2022-08-22T20:38:18.078Z,20.19
2022-08-22T20:41:27.938Z,19.79
2022-08-22T20:44:41.263Z,19.74
2022-08-22T20:47:50.961Z,19.43
2022-08-22T20:51:04.786Z,19.88
2022-08-22T20:54:20.123Z,19.69
2022-08-22T20:57:26.427Z,19.79
2022-08-22T21:00:36.984Z,19.90
2022-08-22T21:03:47.375Z,20.07
2022-08-22T21:07:00.913Z,19.87
2022-08-22T21:10:37.099Z,19.43
2022-08-22T21:13:43.834Z,19.79
2022-08-22T21:16:50.638Z,19.39
2022-08-22T21:19:59.043Z,19.62
2022-08-22T21:23:09.012Z,19.19
2022-08-22T21:26:23.725Z,18.89
2022-08-22T21:29:32.778Z,19.51
2022-08-22T21:32:44.723Z,19.84
2022-08-22T21:35:57.163Z,19.66
2022-08-22T21:39:13.658Z,18.99
2022-08-22T21:42:26.901Z,18.52
2022-08-22T21:45:37.066Z,18.11
2022-08-22T21:48:56.424Z,18.90
2022-08-22T21:52:03.331Z,19.30
2022-08-22T21:55:18.102Z,19.50
2022-08-22T21:58:36.593Z,19.46
2022-08-22T22:01:43.706Z,19.45
2022-08-22T22:04:52.318Z,19.62
2022-08-22T22:08:01.337Z,19.79
2022-08-22T22:11:13.280Z,19.37
2022-08-22T22:14:21.223Z,19.41
2022-08-22T22:17:27.491Z,19.50
2022-08-22T22:20:34.046Z,19.10
2022-08-22T22:23:40.614Z,19.36
2022-08-22T22:26:46.699Z,19.53
2022-08-22T22:29:54.387Z,19.25
2022-08-22T22:33:00.443Z,19.22
2022-08-22T22:36:09.179Z,19.27
2022-08-22T22:39:15.604Z,19.53
2022-08-22T22:42:24.074Z,19.35
2022-08-22T22:45:31.876Z,19.51
2022-08-22T22:48:38.288Z,19.52
2022-08-22T22:51:44.470Z,19.71
2022-08-22T22:54:52.679Z,19.74
2022-08-22T22:57:59.562Z,19.71
2022-08-22T23:01:11.182Z,19.79
2022-08-22T23:04:18.119Z,19.72
2022-08-22T23:07:26.879Z,19.89
2022-08-22T23:10:34.590Z,19.77
2022-08-22T23:13:43.021Z,19.52
2022-08-22T23:16:50.789Z,19.45
2022-08-22T23:19:56.983Z,19.24
2022-08-22T23:23:03.409Z,19.44
2022-08-22T23:26:10.388Z,19.36
2022-08-22T23:29:16.672Z,19.40
2022-08-22T23:32:24.427Z,19.81
2022-08-22T23:35:30.862Z,19.61
2022-08-22T23:38:37.027Z,19.41
2022-08-22T23:41:44.002Z,19.90
2022-08-22T23:44:52.736Z,19.50
2022-08-22T23:48:00.878Z,19.81
2022-08-22T23:51:08.316Z,19.59
2022-08-22T23:54:15.098Z,19.28
2022-08-22T23:57:26.341Z,18.76
